sensor_id;sensor_type;location;lat;lon;timestamp;P1;durP1;ratioP1;P2;durP2;ratioP2
73632;SDS011;61927;50.080;14.418;2023-11-19T00:00:15;16.17;;;7.80;;
73632;SDS011;61927;50.080;14.418;2023-11-19T00:03:01;16.13;;;8.07;;
73632;SDS011;61927;50.080;14.418;2023-11-19T00:05:27;10.07;;;6.88;;
73632;SDS011;61927;50.080;14.418;2023-11-19T00:07:53;12.02;;;7.43;;
73632;SDS011;61927;50.080;14.418;2023-11-19T00:10:19;11.68;;;7.50;;
73632;SDS011;61927;50.080;14.418;2023-11-19T00:12:46;11.88;;;7.55;;
73632;SDS011;61927;50.080;14.418;2023-11-19T00:15:13;16.75;;;8.60;;
73632;SDS011;61927;50.080;14.418;2023-11-19T00:17:43;10.88;;;7.38;;
73632;SDS011;61927;50.080;14.418;2023-11-19T00:20:11;10.02;;;7.15;;
73632;SDS011;61927;50.080;14.418;2023-11-19T00:22:41;10.48;;;6.95;;
73632;SDS011;61927;50.080;14.418;2023-11-19T00:25:08;14.27;;;7.47;;
73632;SDS011;61927;50.080;14.418;2023-11-19T00:27:34;10.35;;;7.40;;
73632;SDS011;61927;50.080;14.418;2023-11-19T00:30:01;10.88;;;7.63;;
73632;SDS011;61927;50.080;14.418;2023-11-19T00:32:26;11.32;;;7.65;;
73632;SDS011;61927;50.080;14.418;2023-11-19T00:34:52;11.98;;;7.90;;
73632;SDS011;61927;50.080;14.418;2023-11-19T00:37:17;10.00;;;7.88;;
73632;SDS011;61927;50.080;14.418;2023-11-19T00:39:43;11.43;;;8.50;;
73632;SDS011;61927;50.080;14.418;2023-11-19T00:42:09;12.15;;;7.88;;
73632;SDS011;61927;50.080;14.418;2023-11-19T00:44:35;13.57;;;8.40;;
73632;SDS011;61927;50.080;14.418;2023-11-19T00:47:01;11.95;;;8.10;;
73632;SDS011;61927;50.080;14.418;2023-11-19T00:49:27;11.68;;;8.13;;
73632;SDS011;61927;50.080;14.418;2023-11-19T00:51:52;16.95;;;7.95;;
73632;SDS011;61927;50.080;14.418;2023-11-19T00:54:18;11.50;;;7.95;;
73632;SDS011;61927;50.080;14.418;2023-11-19T00:56:43;13.75;;;8.80;;
73632;SDS011;61927;50.080;14.418;2023-11-19T00:59:10;17.00;;;10.00;;
73632;SDS011;61927;50.080;14.418;2023-11-19T01:01:36;11.10;;;8.52;;
73632;SDS011;61927;50.080;14.418;2023-11-19T01:04:01;12.80;;;8.10;;
73632;SDS011;61927;50.080;14.418;2023-11-19T01:06:30;10.50;;;8.02;;
73632;SDS011;61927;50.080;14.418;2023-11-19T01:08:57;17.60;;;8.95;;
73632;SDS011;61927;50.080;14.418;2023-11-19T01:11:23;12.23;;;7.95;;
73632;SDS011;61927;50.080;14.418;2023-11-19T01:13:50;15.90;;;8.60;;
73632;SDS011;61927;50.080;14.418;2023-11-19T01:16:16;13.63;;;8.98;;
73632;SDS011;61927;50.080;14.418;2023-11-19T01:18:42;14.85;;;8.45;;
73632;SDS011;61927;50.080;14.418;2023-11-19T01:21:07;13.63;;;8.90;;
73632;SDS011;61927;50.080;14.418;2023-11-19T01:23:34;12.32;;;8.27;;
73632;SDS011;61927;50.080;14.418;2023-11-19T01:26:00;14.50;;;8.88;;
73632;SDS011;61927;50.080;14.418;2023-11-19T01:28:25;15.40;;;8.80;;
73632;SDS011;61927;50.080;14.418;2023-11-19T01:30:51;13.02;;;8.40;;
73632;SDS011;61927;50.080;14.418;2023-11-19T01:33:17;18.33;;;8.93;;
73632;SDS011;61927;50.080;14.418;2023-11-19T01:35:43;15.07;;;8.40;;
73632;SDS011;61927;50.080;14.418;2023-11-19T01:38:09;12.82;;;8.52;;
73632;SDS011;61927;50.080;14.418;2023-11-19T01:40:34;11.35;;;8.43;;
73632;SDS011;61927;50.080;14.418;2023-11-19T01:43:02;12.20;;;8.68;;
73632;SDS011;61927;50.080;14.418;2023-11-19T01:45:29;13.95;;;8.10;;
73632;SDS011;61927;50.080;14.418;2023-11-19T01:48:00;12.35;;;8.02;;
73632;SDS011;61927;50.080;14.418;2023-11-19T01:50:31;14.00;;;8.63;;
73632;SDS011;61927;50.080;14.418;2023-11-19T01:52:58;16.10;;;9.05;;
73632;SDS011;61927;50.080;14.418;2023-11-19T01:55:25;13.13;;;8.07;;
73632;SDS011;61927;50.080;14.418;2023-11-19T01:57:53;12.68;;;8.45;;
73632;SDS011;61927;50.080;14.418;2023-11-19T02:00:24;13.05;;;7.93;;
73632;SDS011;61927;50.080;14.418;2023-11-19T02:02:51;12.10;;;7.80;;
73632;SDS011;61927;50.080;14.418;2023-11-19T02:05:17;14.80;;;9.15;;
73632;SDS011;61927;50.080;14.418;2023-11-19T02:07:43;12.93;;;8.63;;
73632;SDS011;61927;50.080;14.418;2023-11-19T02:10:11;11.65;;;8.60;;
73632;SDS011;61927;50.080;14.418;2023-11-19T02:12:39;13.52;;;8.63;;
73632;SDS011;61927;50.080;14.418;2023-11-19T02:15:08;16.85;;;9.18;;
73632;SDS011;61927;50.080;14.418;2023-11-19T02:17:35;16.08;;;9.32;;
73632;SDS011;61927;50.080;14.418;2023-11-19T02:20:02;13.27;;;8.60;;
73632;SDS011;61927;50.080;14.418;2023-11-19T02:22:34;12.90;;;8.95;;
73632;SDS011;61927;50.080;14.418;2023-11-19T02:25:00;12.48;;;9.23;;
73632;SDS011;61927;50.080;14.418;2023-11-19T02:30:10;16.00;;;9.60;;
73632;SDS011;61927;50.080;14.418;2023-11-19T02:32:37;13.68;;;9.43;;
73632;SDS011;61927;50.080;14.418;2023-11-19T02:35:06;14.20;;;9.48;;
73632;SDS011;61927;50.080;14.418;2023-11-19T02:37:34;15.77;;;9.07;;
73632;SDS011;61927;50.080;14.418;2023-11-19T02:39:59;13.25;;;8.80;;
73632;SDS011;61927;50.080;14.418;2023-11-19T02:42:28;16.52;;;9.85;;
73632;SDS011;61927;50.080;14.418;2023-11-19T02:44:54;15.25;;;8.52;;
73632;SDS011;61927;50.080;14.418;2023-11-19T02:47:19;17.15;;;8.95;;
73632;SDS011;61927;50.080;14.418;2023-11-19T02:49:46;14.27;;;9.07;;
73632;SDS011;61927;50.080;14.418;2023-11-19T02:52:13;19.63;;;9.82;;
73632;SDS011;61927;50.080;14.418;2023-11-19T02:54:39;16.90;;;9.48;;
73632;SDS011;61927;50.080;14.418;2023-11-19T02:57:07;17.70;;;9.35;;
73632;SDS011;61927;50.080;14.418;2023-11-19T02:59:35;17.38;;;9.30;;
73632;SDS011;61927;50.080;14.418;2023-11-19T03:02:07;18.25;;;10.65;;
73632;SDS011;61927;50.080;14.418;2023-11-19T03:04:36;15.18;;;8.98;;
73632;SDS011;61927;50.080;14.418;2023-11-19T03:07:05;14.18;;;8.48;;
73632;SDS011;61927;50.080;14.418;2023-11-19T03:09:32;15.27;;;8.95;;
73632;SDS011;61927;50.080;14.418;2023-11-19T03:11:59;11.70;;;8.02;;
73632;SDS011;61927;50.080;14.418;2023-11-19T03:14:24;14.60;;;8.57;;
73632;SDS011;61927;50.080;14.418;2023-11-19T03:16:50;14.32;;;8.75;;
73632;SDS011;61927;50.080;14.418;2023-11-19T03:19:16;13.93;;;8.18;;
73632;SDS011;61927;50.080;14.418;2023-11-19T03:21:41;15.98;;;8.27;;
73632;SDS011;61927;50.080;14.418;2023-11-19T03:24:07;12.68;;;8.57;;
73632;SDS011;61927;50.080;14.418;2023-11-19T03:26:34;13.75;;;8.23;;
73632;SDS011;61927;50.080;14.418;2023-11-19T03:28:59;16.08;;;8.60;;
73632;SDS011;61927;50.080;14.418;2023-11-19T03:31:25;13.90;;;8.80;;
73632;SDS011;61927;50.080;14.418;2023-11-19T03:33:50;12.32;;;7.30;;
73632;SDS011;61927;50.080;14.418;2023-11-19T03:36:16;14.30;;;8.43;;
73632;SDS011;61927;50.080;14.418;2023-11-19T03:38:42;16.52;;;8.60;;
73632;SDS011;61927;50.080;14.418;2023-11-19T03:41:12;14.13;;;7.80;;
73632;SDS011;61927;50.080;14.418;2023-11-19T03:43:38;9.93;;;7.50;;
73632;SDS011;61927;50.080;14.418;2023-11-19T03:46:04;9.63;;;7.30;;
73632;SDS011;61927;50.080;14.418;2023-11-19T03:48:30;9.20;;;7.57;;
73632;SDS011;61927;50.080;14.418;2023-11-19T03:50:56;12.90;;;8.07;;
73632;SDS011;61927;50.080;14.418;2023-11-19T03:53:22;15.45;;;7.32;;
73632;SDS011;61927;50.080;14.418;2023-11-19T03:55:49;10.85;;;7.00;;
73632;SDS011;61927;50.080;14.418;2023-11-19T03:58:15;10.60;;;7.70;;
73632;SDS011;61927;50.080;14.418;2023-11-19T04:00:40;9.20;;;6.55;;
73632;SDS011;61927;50.080;14.418;2023-11-19T04:03:06;9.10;;;7.07;;
73632;SDS011;61927;50.080;14.418;2023-11-19T04:05:32;10.38;;;6.93;;
73632;SDS011;61927;50.080;14.418;2023-11-19T04:07:57;10.05;;;7.15;;
73632;SDS011;61927;50.080;14.418;2023-11-19T04:10:23;8.82;;;6.70;;
73632;SDS011;61927;50.080;14.418;2023-11-19T04:12:48;7.40;;;6.60;;
73632;SDS011;61927;50.080;14.418;2023-11-19T04:15:14;11.07;;;7.00;;
73632;SDS011;61927;50.080;14.418;2023-11-19T04:17:39;9.57;;;6.85;;
73632;SDS011;61927;50.080;14.418;2023-11-19T04:20:05;10.40;;;6.90;;
73632;SDS011;61927;50.080;14.418;2023-11-19T04:22:35;7.85;;;6.50;;
73632;SDS011;61927;50.080;14.418;2023-11-19T04:25:01;12.00;;;6.75;;
73632;SDS011;61927;50.080;14.418;2023-11-19T04:27:26;9.43;;;6.20;;
73632;SDS011;61927;50.080;14.418;2023-11-19T04:29:52;9.38;;;5.70;;
73632;SDS011;61927;50.080;14.418;2023-11-19T04:32:18;10.40;;;6.45;;
73632;SDS011;61927;50.080;14.418;2023-11-19T04:34:43;7.63;;;6.03;;
73632;SDS011;61927;50.080;14.418;2023-11-19T04:37:09;7.93;;;5.88;;
73632;SDS011;61927;50.080;14.418;2023-11-19T04:39:35;7.95;;;6.07;;
73632;SDS011;61927;50.080;14.418;2023-11-19T04:42:00;8.02;;;6.18;;
73632;SDS011;61927;50.080;14.418;2023-11-19T04:44:26;7.90;;;6.05;;
73632;SDS011;61927;50.080;14.418;2023-11-19T04:46:51;8.52;;;6.38;;
73632;SDS011;61927;50.080;14.418;2023-11-19T04:49:17;6.80;;;5.75;;
73632;SDS011;61927;50.080;14.418;2023-11-19T04:51:44;10.70;;;6.55;;
73632;SDS011;61927;50.080;14.418;2023-11-19T04:54:12;8.48;;;6.97;;
73632;SDS011;61927;50.080;14.418;2023-11-19T04:56:38;9.18;;;6.75;;
73632;SDS011;61927;50.080;14.418;2023-11-19T04:59:05;6.72;;;5.80;;
73632;SDS011;61927;50.080;14.418;2023-11-19T05:01:31;7.72;;;6.15;;
73632;SDS011;61927;50.080;14.418;2023-11-19T05:04:00;8.80;;;6.40;;
73632;SDS011;61927;50.080;14.418;2023-11-19T05:06:27;8.48;;;6.03;;
73632;SDS011;61927;50.080;14.418;2023-11-19T05:08:55;7.88;;;6.15;;
73632;SDS011;61927;50.080;14.418;2023-11-19T05:11:21;6.32;;;5.72;;
73632;SDS011;61927;50.080;14.418;2023-11-19T05:13:47;13.02;;;6.65;;
73632;SDS011;61927;50.080;14.418;2023-11-19T05:16:12;7.90;;;5.95;;
73632;SDS011;61927;50.080;14.418;2023-11-19T05:18:41;7.75;;;5.88;;
73632;SDS011;61927;50.080;14.418;2023-11-19T05:21:07;6.38;;;5.55;;
73632;SDS011;61927;50.080;14.418;2023-11-19T05:23:33;8.05;;;5.93;;
73632;SDS011;61927;50.080;14.418;2023-11-19T05:25:59;7.50;;;6.32;;
73632;SDS011;61927;50.080;14.418;2023-11-19T05:28:26;8.82;;;5.53;;
73632;SDS011;61927;50.080;14.418;2023-11-19T05:30:52;7.13;;;6.07;;
73632;SDS011;61927;50.080;14.418;2023-11-19T05:33:17;7.80;;;5.95;;
73632;SDS011;61927;50.080;14.418;2023-11-19T05:35:43;6.53;;;5.43;;
73632;SDS011;61927;50.080;14.418;2023-11-19T05:38:08;6.70;;;5.13;;
73632;SDS011;61927;50.080;14.418;2023-11-19T05:40:35;7.07;;;5.70;;
73632;SDS011;61927;50.080;14.418;2023-11-19T05:43:01;6.00;;;5.40;;
73632;SDS011;61927;50.080;14.418;2023-11-19T05:45:26;7.93;;;5.55;;
73632;SDS011;61927;50.080;14.418;2023-11-19T05:47:52;7.15;;;5.60;;
73632;SDS011;61927;50.080;14.418;2023-11-19T05:50:18;8.00;;;5.60;;
73632;SDS011;61927;50.080;14.418;2023-11-19T05:52:44;7.55;;;5.43;;
73632;SDS011;61927;50.080;14.418;2023-11-19T05:55:09;6.97;;;5.63;;
73632;SDS011;61927;50.080;14.418;2023-11-19T05:57:36;6.70;;;5.72;;
73632;SDS011;61927;50.080;14.418;2023-11-19T06:00:02;6.65;;;5.03;;
73632;SDS011;61927;50.080;14.418;2023-11-19T06:02:34;13.05;;;5.93;;
73632;SDS011;61927;50.080;14.418;2023-11-19T06:05:00;10.57;;;5.28;;
73632;SDS011;61927;50.080;14.418;2023-11-19T06:07:27;6.75;;;5.47;;
73632;SDS011;61927;50.080;14.418;2023-11-19T06:09:53;7.88;;;5.47;;
73632;SDS011;61927;50.080;14.418;2023-11-19T06:12:18;6.97;;;5.28;;
73632;SDS011;61927;50.080;14.418;2023-11-19T06:14:44;5.55;;;4.90;;
73632;SDS011;61927;50.080;14.418;2023-11-19T06:17:10;6.78;;;5.47;;
73632;SDS011;61927;50.080;14.418;2023-11-19T06:19:36;7.65;;;4.88;;
73632;SDS011;61927;50.080;14.418;2023-11-19T06:22:03;5.93;;;4.80;;
73632;SDS011;61927;50.080;14.418;2023-11-19T06:24:29;7.60;;;4.85;;
73632;SDS011;61927;50.080;14.418;2023-11-19T06:26:54;5.65;;;5.07;;
73632;SDS011;61927;50.080;14.418;2023-11-19T06:29:20;6.55;;;5.28;;
73632;SDS011;61927;50.080;14.418;2023-11-19T06:31:46;5.15;;;4.63;;
73632;SDS011;61927;50.080;14.418;2023-11-19T06:34:15;6.05;;;4.68;;
73632;SDS011;61927;50.080;14.418;2023-11-19T06:36:41;5.20;;;4.70;;
73632;SDS011;61927;50.080;14.418;2023-11-19T06:39:08;4.50;;;4.10;;
73632;SDS011;61927;50.080;14.418;2023-11-19T06:41:34;8.02;;;5.88;;
73632;SDS011;61927;50.080;14.418;2023-11-19T06:43:59;5.38;;;4.50;;
73632;SDS011;61927;50.080;14.418;2023-11-19T06:46:25;5.50;;;4.78;;
73632;SDS011;61927;50.080;14.418;2023-11-19T06:48:51;6.40;;;4.38;;
73632;SDS011;61927;50.080;14.418;2023-11-19T06:51:16;7.20;;;4.78;;
73632;SDS011;61927;50.080;14.418;2023-11-19T06:53:42;6.28;;;5.63;;
73632;SDS011;61927;50.080;14.418;2023-11-19T06:58:48;4.70;;;4.30;;
73632;SDS011;61927;50.080;14.418;2023-11-19T07:01:14;5.53;;;4.53;;
73632;SDS011;61927;50.080;14.418;2023-11-19T07:03:40;4.82;;;4.35;;
73632;SDS011;61927;50.080;14.418;2023-11-19T07:06:06;6.25;;;4.38;;
73632;SDS011;61927;50.080;14.418;2023-11-19T07:08:32;6.68;;;4.30;;
73632;SDS011;61927;50.080;14.418;2023-11-19T07:10:58;4.35;;;3.92;;
73632;SDS011;61927;50.080;14.418;2023-11-19T07:13:23;5.18;;;4.10;;
73632;SDS011;61927;50.080;14.418;2023-11-19T07:15:49;6.38;;;4.90;;
73632;SDS011;61927;50.080;14.418;2023-11-19T07:18:14;5.03;;;4.53;;
73632;SDS011;61927;50.080;14.418;2023-11-19T07:20:40;6.53;;;4.85;;
73632;SDS011;61927;50.080;14.418;2023-11-19T07:23:06;4.63;;;4.18;;
73632;SDS011;61927;50.080;14.418;2023-11-19T07:25:31;4.47;;;4.07;;
73632;SDS011;61927;50.080;14.418;2023-11-19T07:27:57;4.80;;;4.10;;
73632;SDS011;61927;50.080;14.418;2023-11-19T07:30:23;4.05;;;3.70;;
73632;SDS011;61927;50.080;14.418;2023-11-19T07:32:48;4.97;;;4.07;;
73632;SDS011;61927;50.080;14.418;2023-11-19T07:35:14;6.38;;;4.20;;
73632;SDS011;61927;50.080;14.418;2023-11-19T07:37:41;5.20;;;4.03;;
73632;SDS011;61927;50.080;14.418;2023-11-19T07:40:07;8.98;;;4.10;;
73632;SDS011;61927;50.080;14.418;2023-11-19T07:42:33;4.53;;;4.13;;
73632;SDS011;61927;50.080;14.418;2023-11-19T07:44:59;6.63;;;4.15;;
73632;SDS011;61927;50.080;14.418;2023-11-19T07:47:24;7.10;;;4.50;;
73632;SDS011;61927;50.080;14.418;2023-11-19T07:49:50;7.30;;;4.25;;
73632;SDS011;61927;50.080;14.418;2023-11-19T07:52:16;9.20;;;4.30;;
73632;SDS011;61927;50.080;14.418;2023-11-19T07:54:42;6.13;;;4.78;;
73632;SDS011;61927;50.080;14.418;2023-11-19T07:57:07;7.55;;;4.82;;
73632;SDS011;61927;50.080;14.418;2023-11-19T07:59:33;6.22;;;4.40;;
73632;SDS011;61927;50.080;14.418;2023-11-19T08:01:58;7.28;;;4.55;;
73632;SDS011;61927;50.080;14.418;2023-11-19T08:04:24;5.38;;;4.88;;
73632;SDS011;61927;50.080;14.418;2023-11-19T08:06:50;6.50;;;4.85;;
73632;SDS011;61927;50.080;14.418;2023-11-19T08:09:16;8.63;;;4.70;;
73632;SDS011;61927;50.080;14.418;2023-11-19T08:11:42;5.25;;;4.50;;
73632;SDS011;61927;50.080;14.418;2023-11-19T08:14:08;4.85;;;4.20;;
73632;SDS011;61927;50.080;14.418;2023-11-19T08:16:34;4.75;;;4.22;;
73632;SDS011;61927;50.080;14.418;2023-11-19T08:19:00;5.75;;;4.88;;
73632;SDS011;61927;50.080;14.418;2023-11-19T08:21:25;4.35;;;3.95;;
73632;SDS011;61927;50.080;14.418;2023-11-19T08:23:52;6.95;;;4.28;;
73632;SDS011;61927;50.080;14.418;2023-11-19T08:26:17;15.35;;;5.97;;
73632;SDS011;61927;50.080;14.418;2023-11-19T08:28:43;4.68;;;4.25;;
73632;SDS011;61927;50.080;14.418;2023-11-19T08:31:08;5.40;;;4.47;;
73632;SDS011;61927;50.080;14.418;2023-11-19T08:33:34;4.53;;;4.13;;
73632;SDS011;61927;50.080;14.418;2023-11-19T08:36:00;4.72;;;3.97;;
73632;SDS011;61927;50.080;14.418;2023-11-19T08:38:26;4.80;;;4.13;;
73632;SDS011;61927;50.080;14.418;2023-11-19T08:40:52;5.53;;;4.80;;
73632;SDS011;61927;50.080;14.418;2023-11-19T08:43:18;6.10;;;4.80;;
73632;SDS011;61927;50.080;14.418;2023-11-19T08:45:44;5.30;;;4.80;;
73632;SDS011;61927;50.080;14.418;2023-11-19T08:48:10;6.68;;;5.45;;
73632;SDS011;61927;50.080;14.418;2023-11-19T08:50:35;5.45;;;4.78;;
73632;SDS011;61927;50.080;14.418;2023-11-19T08:53:01;5.05;;;4.65;;
73632;SDS011;61927;50.080;14.418;2023-11-19T08:55:26;7.72;;;4.72;;
73632;SDS011;61927;50.080;14.418;2023-11-19T08:57:52;5.57;;;5.00;;
73632;SDS011;61927;50.080;14.418;2023-11-19T09:00:17;6.68;;;5.03;;
73632;SDS011;61927;50.080;14.418;2023-11-19T09:02:43;6.22;;;5.20;;
73632;SDS011;61927;50.080;14.418;2023-11-19T09:05:09;7.00;;;5.40;;
73632;SDS011;61927;50.080;14.418;2023-11-19T09:07:35;7.90;;;6.25;;
73632;SDS011;61927;50.080;14.418;2023-11-19T09:10:00;5.18;;;4.40;;
73632;SDS011;61927;50.080;14.418;2023-11-19T09:12:26;5.60;;;4.53;;
73632;SDS011;61927;50.080;14.418;2023-11-19T09:14:52;5.88;;;4.50;;
73632;SDS011;61927;50.080;14.418;2023-11-19T09:17:18;8.68;;;4.70;;
73632;SDS011;61927;50.080;14.418;2023-11-19T09:19:43;5.97;;;4.25;;
73632;SDS011;61927;50.080;14.418;2023-11-19T09:22:09;4.90;;;4.43;;
73632;SDS011;61927;50.080;14.418;2023-11-19T09:24:35;5.40;;;4.55;;
73632;SDS011;61927;50.080;14.418;2023-11-19T09:27:00;5.78;;;4.50;;
73632;SDS011;61927;50.080;14.418;2023-11-19T09:29:26;5.43;;;4.65;;
73632;SDS011;61927;50.080;14.418;2023-11-19T09:31:51;11.98;;;5.07;;
73632;SDS011;61927;50.080;14.418;2023-11-19T09:34:17;6.25;;;4.32;;
73632;SDS011;61927;50.080;14.418;2023-11-19T09:36:43;5.93;;;4.57;;
73632;SDS011;61927;50.080;14.418;2023-11-19T09:39:10;7.38;;;4.85;;
73632;SDS011;61927;50.080;14.418;2023-11-19T09:41:36;10.32;;;4.78;;
73632;SDS011;61927;50.080;14.418;2023-11-19T09:44:01;8.80;;;6.13;;
73632;SDS011;61927;50.080;14.418;2023-11-19T09:46:27;5.57;;;5.00;;
73632;SDS011;61927;50.080;14.418;2023-11-19T09:48:53;6.72;;;5.57;;
73632;SDS011;61927;50.080;14.418;2023-11-19T09:51:21;6.28;;;5.03;;
73632;SDS011;61927;50.080;14.418;2023-11-19T09:53:50;7.32;;;5.97;;
73632;SDS011;61927;50.080;14.418;2023-11-19T09:56:16;11.82;;;6.00;;
73632;SDS011;61927;50.080;14.418;2023-11-19T09:58:42;7.03;;;6.13;;
73632;SDS011;61927;50.080;14.418;2023-11-19T10:01:08;10.15;;;5.97;;
73632;SDS011;61927;50.080;14.418;2023-11-19T10:03:36;10.85;;;6.95;;
73632;SDS011;61927;50.080;14.418;2023-11-19T10:06:09;9.70;;;8.00;;
73632;SDS011;61927;50.080;14.418;2023-11-19T10:08:39;7.32;;;5.45;;
73632;SDS011;61927;50.080;14.418;2023-11-19T10:11:08;5.47;;;4.72;;
73632;SDS011;61927;50.080;14.418;2023-11-19T10:13:35;5.53;;;4.53;;
73632;SDS011;61927;50.080;14.418;2023-11-19T10:16:07;5.68;;;4.68;;
73632;SDS011;61927;50.080;14.418;2023-11-19T10:18:33;9.23;;;4.38;;
73632;SDS011;61927;50.080;14.418;2023-11-19T10:21:06;5.22;;;4.03;;
73632;SDS011;61927;50.080;14.418;2023-11-19T10:23:54;4.93;;;4.28;;
73632;SDS011;61927;50.080;14.418;2023-11-19T10:26:19;9.27;;;4.40;;
73632;SDS011;61927;50.080;14.418;2023-11-19T10:28:46;8.55;;;4.00;;
73632;SDS011;61927;50.080;14.418;2023-11-19T10:31:13;5.22;;;3.75;;
73632;SDS011;61927;50.080;14.418;2023-11-19T10:33:39;4.03;;;3.55;;
73632;SDS011;61927;50.080;14.418;2023-11-19T10:36:05;3.13;;;2.83;;
73632;SDS011;61927;50.080;14.418;2023-11-19T10:38:31;1.83;;;1.73;;
73632;SDS011;61927;50.080;14.418;2023-11-19T10:40:56;2.10;;;1.98;;
73632;SDS011;61927;50.080;14.418;2023-11-19T10:43:22;2.28;;;2.00;;
73632;SDS011;61927;50.080;14.418;2023-11-19T10:45:49;2.55;;;2.13;;
73632;SDS011;61927;50.080;14.418;2023-11-19T10:48:15;2.38;;;2.22;;
73632;SDS011;61927;50.080;14.418;2023-11-19T10:50:41;1.75;;;1.65;;
73632;SDS011;61927;50.080;14.418;2023-11-19T10:53:09;2.58;;;2.38;;
73632;SDS011;61927;50.080;14.418;2023-11-19T10:55:38;1.70;;;1.60;;
73632;SDS011;61927;50.080;14.418;2023-11-19T10:58:05;2.17;;;2.03;;
73632;SDS011;61927;50.080;14.418;2023-11-19T11:03:29;1.90;;;1.25;;
73632;SDS011;61927;50.080;14.418;2023-11-19T11:06:02;1.08;;;0.80;;
73632;SDS011;61927;50.080;14.418;2023-11-19T11:08:29;1.10;;;1.00;;
73632;SDS011;61927;50.080;14.418;2023-11-19T11:10:55;4.50;;;4.00;;
73632;SDS011;61927;50.080;14.418;2023-11-19T11:13:23;0.80;;;0.80;;
73632;SDS011;61927;50.080;14.418;2023-11-19T11:15:49;0.70;;;0.70;;
73632;SDS011;61927;50.080;14.418;2023-11-19T11:18:15;0.80;;;0.80;;
73632;SDS011;61927;50.080;14.418;2023-11-19T11:20:46;1.55;;;1.40;;
73632;SDS011;61927;50.080;14.418;2023-11-19T11:29:01;1.45;;;0.82;;
73632;SDS011;61927;50.080;14.418;2023-11-19T11:31:39;4.15;;;1.40;;
73632;SDS011;61927;50.080;14.418;2023-11-19T11:34:14;1.35;;;1.30;;
73632;SDS011;61927;50.080;14.418;2023-11-19T11:37:09;1.10;;;1.00;;
73632;SDS011;61927;50.080;14.418;2023-11-19T11:39:43;1.85;;;1.73;;
73632;SDS011;61927;50.080;14.418;2023-11-19T11:44:58;0.80;;;0.80;;
73632;SDS011;61927;50.080;14.418;2023-11-19T11:50:07;2.25;;;1.40;;
73632;SDS011;61927;50.080;14.418;2023-11-19T11:55:26;1.55;;;1.00;;
73632;SDS011;61927;50.080;14.418;2023-11-19T11:57:57;4.03;;;1.05;;
73632;SDS011;61927;50.080;14.418;2023-11-19T12:00:27;9.63;;;1.48;;
73632;SDS011;61927;50.080;14.418;2023-11-19T12:03:03;1.55;;;1.00;;
73632;SDS011;61927;50.080;14.418;2023-11-19T12:05:30;1.10;;;1.10;;
73632;SDS011;61927;50.080;14.418;2023-11-19T12:08:02;1.55;;;1.10;;
73632;SDS011;61927;50.080;14.418;2023-11-19T12:10:30;1.63;;;1.17;;
73632;SDS011;61927;50.080;14.418;2023-11-19T12:12:58;3.85;;;1.20;;
73632;SDS011;61927;50.080;14.418;2023-11-19T12:15:24;1.08;;;1.05;;
73632;SDS011;61927;50.080;14.418;2023-11-19T12:17:50;2.00;;;1.52;;
73632;SDS011;61927;50.080;14.418;2023-11-19T12:20:16;3.20;;;1.50;;
73632;SDS011;61927;50.080;14.418;2023-11-19T12:22:44;3.53;;;1.30;;
73632;SDS011;61927;50.080;14.418;2023-11-19T12:25:11;12.23;;;4.68;;
73632;SDS011;61927;50.080;14.418;2023-11-19T12:27:41;5.97;;;4.68;;
73632;SDS011;61927;50.080;14.418;2023-11-19T12:30:09;2.25;;;0.95;;
73632;SDS011;61927;50.080;14.418;2023-11-19T12:32:38;5.18;;;1.52;;
73632;SDS011;61927;50.080;14.418;2023-11-19T12:35:08;1.98;;;1.50;;
73632;SDS011;61927;50.080;14.418;2023-11-19T12:37:44;2.60;;;1.42;;
73632;SDS011;61927;50.080;14.418;2023-11-19T12:40:29;3.10;;;1.30;;
73632;SDS011;61927;50.080;14.418;2023-11-19T12:42:54;2.25;;;1.58;;
73632;SDS011;61927;50.080;14.418;2023-11-19T12:45:20;1.50;;;1.40;;
73632;SDS011;61927;50.080;14.418;2023-11-19T12:47:48;1.50;;;1.20;;
73632;SDS011;61927;50.080;14.418;2023-11-19T12:50:15;1.65;;;1.10;;
73632;SDS011;61927;50.080;14.418;2023-11-19T12:52:56;2.75;;;1.48;;
73632;SDS011;61927;50.080;14.418;2023-11-19T12:55:26;2.17;;;1.45;;
73632;SDS011;61927;50.080;14.418;2023-11-19T12:57:55;1.67;;;1.33;;
73632;SDS011;61927;50.080;14.418;2023-11-19T13:00:23;4.22;;;2.67;;
73632;SDS011;61927;50.080;14.418;2023-11-19T13:02:54;1.98;;;1.67;;
73632;SDS011;61927;50.080;14.418;2023-11-19T13:05:27;3.17;;;2.65;;
73632;SDS011;61927;50.080;14.418;2023-11-19T13:10:30;1.30;;;1.20;;
73632;SDS011;61927;50.080;14.418;2023-11-19T13:13:21;4.82;;;1.77;;
73632;SDS011;61927;50.080;14.418;2023-11-19T13:15:47;1.60;;;1.50;;
73632;SDS011;61927;50.080;14.418;2023-11-19T13:18:16;2.40;;;1.60;;
73632;SDS011;61927;50.080;14.418;2023-11-19T13:20:41;4.90;;;3.40;;
73632;SDS011;61927;50.080;14.418;2023-11-19T13:23:08;3.15;;;2.03;;
73632;SDS011;61927;50.080;14.418;2023-11-19T13:25:33;2.03;;;1.90;;
73632;SDS011;61927;50.080;14.418;2023-11-19T13:27:59;1.80;;;1.40;;
73632;SDS011;61927;50.080;14.418;2023-11-19T13:30:25;5.97;;;1.70;;
73632;SDS011;61927;50.080;14.418;2023-11-19T13:32:52;5.20;;;2.35;;
73632;SDS011;61927;50.080;14.418;2023-11-19T13:35:19;5.25;;;2.65;;
73632;SDS011;61927;50.080;14.418;2023-11-19T13:37:45;3.80;;;1.52;;
73632;SDS011;61927;50.080;14.418;2023-11-19T13:40:11;6.90;;;2.17;;
73632;SDS011;61927;50.080;14.418;2023-11-19T13:42:41;3.03;;;2.60;;
73632;SDS011;61927;50.080;14.418;2023-11-19T13:45:13;2.75;;;1.33;;
73632;SDS011;61927;50.080;14.418;2023-11-19T13:47:40;3.17;;;1.73;;
73632;SDS011;61927;50.080;14.418;2023-11-19T13:50:10;7.07;;;2.00;;
73632;SDS011;61927;50.080;14.418;2023-11-19T13:52:37;2.28;;;1.50;;
73632;SDS011;61927;50.080;14.418;2023-11-19T13:55:07;2.08;;;1.88;;
73632;SDS011;61927;50.080;14.418;2023-11-19T13:57:35;2.67;;;2.08;;
73632;SDS011;61927;50.080;14.418;2023-11-19T14:00:04;1.83;;;1.67;;
73632;SDS011;61927;50.080;14.418;2023-11-19T14:02:41;5.68;;;1.77;;
73632;SDS011;61927;50.080;14.418;2023-11-19T14:05:08;1.92;;;1.50;;
73632;SDS011;61927;50.080;14.418;2023-11-19T14:07:36;3.25;;;1.88;;
73632;SDS011;61927;50.080;14.418;2023-11-19T14:10:02;7.13;;;1.67;;
73632;SDS011;61927;50.080;14.418;2023-11-19T14:12:28;5.18;;;1.80;;
73632;SDS011;61927;50.080;14.418;2023-11-19T14:14:54;1.40;;;1.40;;
73632;SDS011;61927;50.080;14.418;2023-11-19T14:17:20;6.75;;;1.98;;
73632;SDS011;61927;50.080;14.418;2023-11-19T14:19:46;2.30;;;2.10;;
73632;SDS011;61927;50.080;14.418;2023-11-19T14:22:11;6.25;;;2.85;;
73632;SDS011;61927;50.080;14.418;2023-11-19T14:24:37;19.05;;;3.97;;
73632;SDS011;61927;50.080;14.418;2023-11-19T14:27:03;3.65;;;2.00;;
73632;SDS011;61927;50.080;14.418;2023-11-19T14:29:29;2.78;;;2.05;;
73632;SDS011;61927;50.080;14.418;2023-11-19T14:31:56;6.00;;;1.60;;
73632;SDS011;61927;50.080;14.418;2023-11-19T14:34:22;3.33;;;1.85;;
73632;SDS011;61927;50.080;14.418;2023-11-19T14:36:48;3.78;;;1.70;;
73632;SDS011;61927;50.080;14.418;2023-11-19T14:39:14;1.75;;;1.65;;
73632;SDS011;61927;50.080;14.418;2023-11-19T14:41:40;1.92;;;1.30;;
73632;SDS011;61927;50.080;14.418;2023-11-19T14:44:05;2.85;;;1.58;;
73632;SDS011;61927;50.080;14.418;2023-11-19T14:46:31;2.92;;;2.05;;
73632;SDS011;61927;50.080;14.418;2023-11-19T14:48:56;3.83;;;1.73;;
73632;SDS011;61927;50.080;14.418;2023-11-19T14:51:22;6.60;;;2.00;;
73632;SDS011;61927;50.080;14.418;2023-11-19T14:53:48;2.80;;;2.25;;